»·PEaware :: UAL955 BGTL-KSFO

UAL955 :: BGTL-KSFO

FLIGHT INFORMATION

Flight Status: Arrived
Operator:
United Airlines
More flights by this operator :: More flights under this callsign
Pilot: Thomas C. (28508)
Aircraft: Unknown
(B77L)
More flights by this aircraft type
Origin: BGTL Thule AB
Greenland
Destination: KSFO San Francisco Intl
United States
More flights between these airports :: More routes between these airports
Route: +MODET/N0465F360 CB J477 ZF YPE LW/N0472F380 YKM RBL MRRLO BDEGA3
File this flight plan on PilotEdge
Remarks: PBN / A1B1C1D1L1O1S2 NAV / RNVD1E2A1 DOF / 200321 REG / N77006 EET / CZEG0000 CZVR0403 KZSE0434 KZOA0535 SEL / EJGS OPR / UAL PER / D RALT / CYFB CYMM RMK / TCAS
Altitude:
(Current/Filed)
36,000ft
Speed:
(Current/Filed)
463kts
Departed: 21-Mar-20 08:21 AM
Arrived: 21-Mar-20 02:23 PM
Distance/Time
Traveled:
2721nm/6:02
Distance/Time
To Go:
Arrived

Flight Plot

Page will automatically refresh every two minutes.


Map Options




Map Legend


Flown Route
Filed Route
Departure Airport
Arrival Airport
Navaid (VOR, NDB)
Fix

Horizontal Profiles

Position Reports

Time Latitude Longitude Heading Altitude Ground
Speed
21-Mar-20 07:42 76.535078 -68.702790 9 17ft 0kts
21-Mar-20 07:43 76.535078 -68.702790 9 17ft 0kts
21-Mar-20 07:44 76.535078 -68.702791 9 17ft 0kts
21-Mar-20 07:45 76.535078 -68.702791 9 17ft 0kts
21-Mar-20 07:46 76.535078 -68.702791 9 17ft 0kts
21-Mar-20 07:47 76.535078 -68.702791 9 17ft 0kts
21-Mar-20 07:48 76.535078 -68.702791 9 17ft 0kts
21-Mar-20 07:48 76.535078 -68.702791 9 17ft 0kts
21-Mar-20 07:50 76.535078 -68.702791 9 17ft 0kts
21-Mar-20 07:50 76.535078 -68.702791 9 17ft 0kts
21-Mar-20 07:51 76.535078 -68.702791 9 17ft 0kts
21-Mar-20 07:53 76.535078 -68.702791 9 17ft 0kts
21-Mar-20 07:53 76.535078 -68.702791 9 17ft 0kts
21-Mar-20 07:55 76.535078 -68.702791 9 17ft 0kts
21-Mar-20 07:55 76.535078 -68.702791 9 17ft 0kts
21-Mar-20 07:56 76.535078 -68.702791 9 17ft 0kts
21-Mar-20 07:57 76.535078 -68.702791 9 17ft 0kts
21-Mar-20 07:58 76.535078 -68.702791 9 17ft 0kts
21-Mar-20 07:59 76.535078 -68.702791 9 17ft 0kts
21-Mar-20 08:00 76.535078 -68.702791 9 17ft 0kts
21-Mar-20 08:01 76.535078 -68.702791 9 17ft 0kts
21-Mar-20 08:02 76.535078 -68.702791 9 17ft 0kts
21-Mar-20 08:03 76.535078 -68.702791 9 17ft 0kts
21-Mar-20 08:04 76.535078 -68.702791 9 17ft 0kts
21-Mar-20 08:05 76.535078 -68.702791 9 17ft 0kts
21-Mar-20 08:06 76.535078 -68.702791 9 17ft 0kts
21-Mar-20 08:07 76.535078 -68.702791 9 17ft 0kts
21-Mar-20 08:08 76.535078 -68.702791 9 17ft 0kts
21-Mar-20 08:09 76.535077 -68.702791 9 17ft 0kts
21-Mar-20 08:10 76.535077 -68.702791 9 17ft 0kts
21-Mar-20 08:11 76.534754 -68.703024 9 17ft 0kts
21-Mar-20 08:12 76.534405 -68.702070 280 17ft 0kts
21-Mar-20 08:13 76.534405 -68.702073 280 17ft 0kts
21-Mar-20 08:14 76.534405 -68.702074 280 17ft 0kts
21-Mar-20 08:15 76.534444 -68.702867 282 17ft 6kts
21-Mar-20 08:16 76.534641 -68.718867 251 17ft 14kts
21-Mar-20 08:17 76.533211 -68.735573 250 17ft 14kts
21-Mar-20 08:18 76.532583 -68.753161 262 17ft 14kts
21-Mar-20 08:19 76.531244 -68.761566 174 17ft 10kts
21-Mar-20 08:20 76.530703 -68.729407 84 17ft 129kts
21-Mar-20 08:21 76.507771 -68.589086 193 2891ft 189kts
21-Mar-20 08:22 76.500705 -68.815873 297 4405ft 258kts
21-Mar-20 08:23 76.510599 -69.119281 268 7093ft 267kts
21-Mar-20 08:24 76.509856 -69.439883 267 9786ft 278kts
21-Mar-20 08:25 76.508243 -69.778278 258 10733ft 296kts
21-Mar-20 08:26 76.488562 -70.137840 260 11300ft 326kts
21-Mar-20 08:27 76.469216 -70.534018 246 11917ft 352kts
21-Mar-20 08:28 76.426922 -70.915575 242 13399ft 366kts
21-Mar-20 08:29 76.381008 -71.302288 243 15498ft 373kts
21-Mar-20 08:30 76.333061 -71.697484 242 16792ft 381kts
21-Mar-20 08:31 76.283193 -72.100376 243 18517ft 397kts
21-Mar-20 08:32 76.230510 -72.517296 243 21811ft 417kts
21-Mar-20 08:33 76.173857 -72.956280 243 24859ft 441kts
21-Mar-20 08:34 76.113364 -73.414257 243 28210ft 449kts
21-Mar-20 08:35 76.050096 -73.884066 240 29602ft 496kts
21-Mar-20 08:36 75.981343 -74.380499 242 32388ft 506kts
21-Mar-20 08:37 75.911149 -74.876372 241 34309ft 506kts
21-Mar-20 08:38 75.839540 -75.369535 241 35674ft 495kts
21-Mar-20 08:39 75.783705 -75.879302 249 35686ft 493kts
21-Mar-20 08:40 75.730893 -76.391303 249 35669ft 491kts
21-Mar-20 08:41 75.676637 -76.899598 248 35669ft 490kts
21-Mar-20 08:42 75.621350 -77.403464 248 35670ft 489kts
21-Mar-20 08:43 75.565317 -77.900859 246 35668ft 485kts
21-Mar-20 08:44 75.508808 -78.389564 246 35669ft 484kts
21-Mar-20 08:45 75.451882 -78.869742 245 35670ft 483kts
21-Mar-20 08:46 75.393617 -79.349191 245 35670ft 482kts
21-Mar-20 08:47 75.334305 -79.825481 244 35670ft 480kts
21-Mar-20 08:48 75.274548 -80.293998 244 35670ft 479kts
21-Mar-20 08:49 75.213800 -80.759147 243 35671ft 478kts
21-Mar-20 08:50 75.152305 -81.219325 243 35670ft 477kts
21-Mar-20 08:51 75.090070 -81.674602 242 35669ft 476kts
21-Mar-20 08:52 75.027002 -82.125553 242 35669ft 475kts
21-Mar-20 08:53 74.963257 -82.571481 242 35669ft 474kts
21-Mar-20 08:54 74.898728 -83.013157 241 35670ft 474kts
21-Mar-20 08:55 74.833416 -83.450718 241 35669ft 473kts
21-Mar-20 08:56 74.767580 -83.882551 240 35670ft 472kts
21-Mar-20 08:57 74.700762 -84.311783 240 35669ft 471kts
21-Mar-20 08:58 74.633447 -84.735365 239 35670ft 470kts
21-Mar-20 08:59 74.565435 -85.154726 239 35811ft 471kts
21-Mar-20 09:00 74.496644 -85.570509 239 35804ft 470kts
21-Mar-20 09:01 74.426845 -85.984067 238 35805ft 471kts
21-Mar-20 09:02 74.356446 -86.393064 238 35804ft 471kts
21-Mar-20 09:03 74.285173 -86.799124 237 35805ft 472kts
21-Mar-20 09:04 74.213042 -87.202277 237 35804ft 472kts
21-Mar-20 09:05 74.140216 -87.601596 237 35804ft 472kts
21-Mar-20 09:06 74.066679 -87.997259 237 35805ft 472kts
21-Mar-20 09:07 73.992319 -88.389949 237 35805ft 473kts
21-Mar-20 09:08 73.917891 -88.775761 236 35806ft 473kts
21-Mar-20 09:09 73.841723 -89.163444 236 35804ft 473kts
21-Mar-20 09:10 73.764905 -89.547333 236 35804ft 473kts
21-Mar-20 09:11 73.687624 -89.926617 235 35806ft 474kts
21-Mar-20 09:12 73.609440 -90.303549 235 35711ft 475kts
21-Mar-20 09:13 73.530620 -90.676811 234 35752ft 475kts
21-Mar-20 09:14 73.451270 -91.046033 234 35590ft 474kts
21-Mar-20 09:15 73.371000 -91.413072 234 35588ft 474kts
21-Mar-20 09:16 73.289997 -91.777070 233 35590ft 474kts
21-Mar-20 09:17 73.208789 -92.135804 233 35589ft 474kts
21-Mar-20 09:18 73.126439 -92.493439 233 35588ft 474kts
21-Mar-20 09:19 73.043880 -92.845953 233 35590ft 474kts
21-Mar-20 09:20 72.960905 -93.194398 233 35589ft 474kts
21-Mar-20 09:21 72.877101 -93.540526 233 35587ft 474kts
21-Mar-20 09:22 72.792653 -93.883624 232 35588ft 474kts
21-Mar-20 09:23 72.707777 -94.222872 232 35588ft 474kts
21-Mar-20 09:24 72.622464 -94.558400 232 35587ft 474kts
21-Mar-20 09:25 72.536418 -94.891413 231 35589ft 474kts
21-Mar-20 09:26 72.449855 -95.221136 231 35640ft 474kts
21-Mar-20 09:27 72.362895 -95.547191 231 35642ft 474kts
21-Mar-20 09:28 72.275139 -95.871136 230 35643ft 474kts
21-Mar-20 09:29 72.186876 -96.191875 230 35643ft 474kts
21-Mar-20 09:30 72.098310 -96.508792 230 35643ft 474kts
21-Mar-20 09:31 72.009132 -96.823032 229 35644ft 475kts
21-Mar-20 09:32 71.919249 -97.134988 229 35698ft 475kts
21-Mar-20 09:33 71.828955 -97.443645 229 35695ft 474kts
21-Mar-20 09:34 71.738114 -97.749548 228 35697ft 475kts
21-Mar-20 09:35 71.646967 -98.051971 228 35696ft 475kts
21-Mar-20 09:36 71.555097 -98.352278 228 35696ft 475kts
21-Mar-20 09:37 71.463084 -98.648669 228 35695ft 475kts
21-Mar-20 09:38 71.371254 -98.940219 227 35697ft 475kts
21-Mar-20 09:39 71.278096 -99.231733 227 35697ft 475kts
21-Mar-20 09:40 71.184467 -99.520543 227 35696ft 475kts
21-Mar-20 09:41 71.090354 -99.806702 227 35698ft 475kts
21-Mar-20 09:42 70.996019 -100.089501 227 35698ft 475kts
21-Mar-20 09:43 70.901163 -100.369900 227 35724ft 475kts
21-Mar-20 09:45 70.806846 -100.644845 227 35722ft 475kts
21-Mar-20 09:46 70.711048 -100.920257 226 35723ft 475kts
21-Mar-20 09:47 70.614918 -101.192824 226 35723ft 475kts
21-Mar-20 09:48 70.518306 -101.463029 226 35723ft 475kts
21-Mar-20 09:49 70.421393 -101.730387 225 35725ft 475kts
21-Mar-20 09:50 70.324297 -101.994674 225 35724ft 475kts
21-Mar-20 09:51 70.226642 -102.256920 225 35724ft 475kts
21-Mar-20 09:52 70.128318 -102.517461 225 35723ft 475kts
21-Mar-20 09:53 70.030044 -102.774407 224 35725ft 475kts
21-Mar-20 09:54 69.931267 -103.029303 224 35725ft 475kts
21-Mar-20 09:55 69.832239 -103.281517 224 35722ft 474kts
21-Mar-20 09:56 69.732656 -103.531857 224 35722ft 474kts
21-Mar-20 09:57 69.632860 -103.779507 223 35724ft 474kts
21-Mar-20 09:58 69.533157 -104.023773 223 35724ft 474kts
21-Mar-20 09:59 69.432653 -104.266881 223 35723ft 473kts
21-Mar-20 10:00 69.332221 -104.506752 223 35723ft 473kts
21-Mar-20 10:01 69.231383 -104.744574 222 35725ft 473kts
21-Mar-20 10:02 69.129651 -104.977335 221 35726ft 473kts
21-Mar-20 10:03 69.022268 -105.191801 217 35724ft 475kts
21-Mar-20 10:03 68.931550 -105.363505 217 35696ft 474kts
21-Mar-20 10:05 68.803842 -105.601662 217 35695ft 474kts
21-Mar-20 10:06 68.694172 -105.803498 216 35697ft 474kts
21-Mar-20 10:06 68.602513 -105.970334 216 35697ft 474kts
21-Mar-20 10:07 68.492848 -106.167783 216 35696ft 474kts
21-Mar-20 10:09 68.364396 -106.396104 216 35696ft 474kts
21-Mar-20 10:09 68.272262 -106.557956 216 35696ft 474kts
21-Mar-20 10:10 68.161758 -106.750000 215 35696ft 474kts
21-Mar-20 10:11 68.051115 -106.940079 215 35697ft 473kts
21-Mar-20 10:12 67.940091 -107.128620 215 35699ft 473kts
21-Mar-20 10:13 67.828840 -107.315377 215 35696ft 473kts
21-Mar-20 10:14 67.717639 -107.499933 215 35695ft 472kts
21-Mar-20 10:15 67.605988 -107.683137 214 35698ft 473kts
21-Mar-20 10:16 67.494553 -107.863960 214 35697ft 472kts
21-Mar-20 10:17 67.382910 -108.043085 214 35697ft 472kts
21-Mar-20 10:18 67.271284 -108.220209 214 35697ft 471kts
21-Mar-20 10:19 67.159608 -108.395469 214 35695ft 471kts
21-Mar-20 10:20 67.047654 -108.569243 214 35858ft 471kts
21-Mar-20 10:21 66.936646 -108.739687 213 35859ft 471kts
21-Mar-20 10:22 66.824266 -108.910552 212 35860ft 472kts
21-Mar-20 10:23 66.711596 -109.079720 212 35858ft 471kts
21-Mar-20 10:24 66.598202 -109.248275 212 35858ft 471kts
21-Mar-20 10:25 66.485658 -109.413809 212 35858ft 470kts
21-Mar-20 10:26 66.372537 -109.578427 212 35857ft 470kts
21-Mar-20 10:27 66.259284 -109.741504 211 35859ft 470kts
21-Mar-20 10:28 66.146418 -109.902344 211 35858ft 469kts
21-Mar-20 10:29 66.033132 -110.062106 211 35858ft 469kts
21-Mar-20 10:30 65.919794 -110.220297 211 35857ft 469kts
21-Mar-20 10:31 65.806251 -110.377152 211 35859ft 469kts
21-Mar-20 10:32 65.693085 -110.531903 211 35858ft 469kts
21-Mar-20 10:33 65.579080 -110.686214 210 35860ft 469kts
21-Mar-20 10:34 65.465352 -110.838641 210 35859ft 471kts
21-Mar-20 10:35 65.350541 -110.990934 210 35858ft 471kts
21-Mar-20 10:36 65.235916 -111.141474 210 35858ft 471kts
21-Mar-20 10:37 65.121325 -111.290479 210 35858ft 471kts
21-Mar-20 10:38 65.006108 -111.438815 210 35857ft 471kts
21-Mar-20 10:39 64.891206 -111.585286 210 35857ft 471kts
21-Mar-20 10:40 64.774757 -111.732271 209 35860ft 472kts
21-Mar-20 10:41 64.659022 -111.876934 209 35859ft 472kts
21-Mar-20 10:42 64.542729 -112.020869 209 35959ft 474kts
21-Mar-20 10:43 64.426857 -112.162919 209 35859ft 473kts
21-Mar-20 10:44 64.310223 -112.304519 209 35858ft 474kts
21-Mar-20 10:45 64.193637 -112.444707 209 35804ft 474kts
21-Mar-20 10:46 64.076845 -112.583803 209 35803ft 475kts
21-Mar-20 10:47 63.959502 -112.722222 208 35805ft 475kts
21-Mar-20 10:48 63.841591 -112.860004 208 35805ft 476kts
21-Mar-20 10:49 63.723749 -112.996381 209 35994ft 477kts
21-Mar-20 10:50 63.605421 -113.132146 209 35994ft 477kts
21-Mar-20 10:51 63.487036 -113.266679 209 36013ft 476kts
21-Mar-20 10:52 63.368056 -113.400611 209 35991ft 478kts
21-Mar-20 10:53 63.248927 -113.533475 209 35993ft 479kts
21-Mar-20 10:54 63.129652 -113.665272 208 35994ft 480kts
21-Mar-20 10:55 63.010131 -113.796120 208 35995ft 480kts
21-Mar-20 10:56 62.889929 -113.926511 208 35994ft 481kts
21-Mar-20 10:57 62.769679 -114.055766 208 35879ft 481kts
21-Mar-20 10:58 62.649552 -114.183706 208 35885ft 482kts
21-Mar-20 10:59 62.529071 -114.310865 208 35885ft 483kts
21-Mar-20 11:00 62.407667 -114.433842 201 35881ft 486kts
21-Mar-20 11:01 62.277412 -114.514126 198 35885ft 488kts
21-Mar-20 11:02 62.146711 -114.591668 198 35885ft 488kts
21-Mar-20 11:03 62.015887 -114.668476 197 35888ft 489kts
21-Mar-20 11:04 61.884181 -114.745101 197 35886ft 490kts
21-Mar-20 11:05 61.753169 -114.820655 197 35886ft 490kts
21-Mar-20 11:06 61.621853 -114.895715 197 35886ft 491kts
21-Mar-20 11:07 61.489822 -114.970521 197 35886ft 491kts
21-Mar-20 11:08 61.357911 -115.044601 198 35964ft 492kts
21-Mar-20 11:09 61.225813 -115.118147 198 35967ft 492kts
21-Mar-20 11:10 61.093343 -115.191260 198 35968ft 493kts
21-Mar-20 11:11 60.960125 -115.264148 198 35968ft 493kts
21-Mar-20 11:12 60.826225 -115.336772 198 35989ft 493kts
21-Mar-20 11:13 60.690084 -115.409973 198 35965ft 494kts
21-Mar-20 11:14 60.553243 -115.482907 198 35965ft 494kts
21-Mar-20 11:15 60.417872 -115.554434 198 35965ft 495kts
21-Mar-20 11:16 60.282645 -115.625272 198 35966ft 495kts
21-Mar-20 11:17 60.147259 -115.695588 197 35969ft 496kts
21-Mar-20 11:18 60.010292 -115.766118 197 35970ft 497kts
21-Mar-20 11:19 59.874614 -115.835389 197 35966ft 496kts
21-Mar-20 11:20 59.741159 -115.902965 197 35966ft 496kts
21-Mar-20 11:21 59.607735 -115.969967 197 35967ft 495kts
21-Mar-20 11:22 59.474095 -116.036530 198 36048ft 495kts
21-Mar-20 11:23 59.340852 -116.102358 198 36048ft 494kts
21-Mar-20 11:24 59.207993 -116.167467 198 36048ft 493kts
21-Mar-20 11:25 59.074721 -116.232257 198 36049ft 493kts
21-Mar-20 11:26 58.942328 -116.296108 198 36049ft 492kts
21-Mar-20 11:27 58.809385 -116.359714 198 36045ft 492kts
21-Mar-20 11:28 58.676716 -116.422692 198 36045ft 492kts
21-Mar-20 11:29 58.544181 -116.485117 198 36045ft 491kts
21-Mar-20 11:30 58.411320 -116.547209 198 36046ft 491kts
21-Mar-20 11:31 58.278652 -116.608732 198 36046ft 490kts
21-Mar-20 11:32 58.145810 -116.669865 197 36052ft 491kts
21-Mar-20 11:33 58.013781 -116.730150 197 36051ft 490kts
21-Mar-20 11:34 57.881195 -116.790237 197 36048ft 490kts
21-Mar-20 11:35 57.748653 -116.849852 198 36135ft 490kts
21-Mar-20 11:36 57.616641 -116.908781 198 36129ft 489kts
21-Mar-20 11:37 57.484821 -116.967188 198 36129ft 489kts
21-Mar-20 11:38 57.352372 -117.025438 198 36129ft 488kts
21-Mar-20 11:39 57.220203 -117.083136 198 36129ft 488kts
21-Mar-20 11:40 57.088527 -117.140197 198 36130ft 488kts
21-Mar-20 11:41 56.956532 -117.196981 198 36130ft 488kts
21-Mar-20 11:42 56.824335 -117.253437 198 36127ft 487kts
21-Mar-20 11:43 56.692694 -117.309252 198 36127ft 487kts
21-Mar-20 11:44 56.561060 -117.364664 198 36127ft 487kts
21-Mar-20 11:45 56.429540 -117.419635 198 36127ft 487kts
21-Mar-20 11:46 56.297602 -117.474391 198 36127ft 486kts
21-Mar-20 11:47 56.165654 -117.526561 196 36127ft 488kts
21-Mar-20 11:48 56.032935 -117.574025 197 36127ft 487kts
21-Mar-20 11:49 55.900488 -117.621012 197 36127ft 487kts
21-Mar-20 11:50 55.767477 -117.667868 196 36131ft 488kts
21-Mar-20 11:51 55.634789 -117.714286 196 36131ft 487kts
21-Mar-20 11:52 55.501910 -117.760448 196 35999ft 487kts
21-Mar-20 11:53 55.369064 -117.806291 196 35996ft 487kts
21-Mar-20 11:55 55.236603 -117.851686 196 35996ft 487kts
21-Mar-20 11:56 55.103325 -117.897051 196 35996ft 486kts
21-Mar-20 11:57 54.970100 -117.942092 196 35996ft 486kts
21-Mar-20 11:58 54.836950 -117.986811 196 35993ft 486kts
21-Mar-20 11:59 54.704673 -118.030934 196 36207ft 487kts
21-Mar-20 12:00 54.571774 -118.074969 196 36170ft 487kts
21-Mar-20 12:01 54.439565 -118.118485 196 35994ft 486kts
21-Mar-20 12:02 54.307145 -118.161786 196 35993ft 485kts
21-Mar-20 12:03 54.174572 -118.204853 196 35999ft 485kts
21-Mar-20 12:04 54.041751 -118.247780 195 36217ft 494kts
21-Mar-20 12:05 53.906883 -118.290955 195 35992ft 492kts
21-Mar-20 12:06 53.772110 -118.333891 195 35991ft 492kts
21-Mar-20 12:07 53.638061 -118.376310 195 35991ft 492kts
21-Mar-20 12:08 53.503840 -118.418513 195 35991ft 491kts
21-Mar-20 12:09 53.369570 -118.460528 195 35983ft 491kts
21-Mar-20 12:10 53.235624 -118.502042 195 35982ft 490kts
21-Mar-20 12:11 53.102012 -118.543256 195 35984ft 492kts
21-Mar-20 12:12 52.967472 -118.584496 195 35985ft 491kts
21-Mar-20 12:13 52.833124 -118.625405 195 35979ft 490kts
21-Mar-20 12:13 52.722876 -118.658790 195 35985ft 491kts
21-Mar-20 12:15 52.566672 -118.705798 194 35987ft 490kts
21-Mar-20 12:16 52.432688 -118.745851 194 35985ft 489kts
21-Mar-20 12:16 52.321800 -118.778817 194 36179ft 489kts
21-Mar-20 12:17 52.188476 -118.818219 194 36175ft 488kts
21-Mar-20 12:19 52.032785 -118.863937 194 36175ft 487kts
21-Mar-20 12:19 51.921754 -118.896342 195 36175ft 487kts
21-Mar-20 12:20 51.788735 -118.934953 195 36173ft 486kts
21-Mar-20 12:21 51.656125 -118.973214 195 36173ft 485kts
21-Mar-20 12:22 51.523242 -119.011326 195 36173ft 485kts
21-Mar-20 12:23 51.391039 -119.049020 195 36173ft 484kts
21-Mar-20 12:24 51.258522 -119.086582 195 36173ft 483kts
21-Mar-20 12:25 51.125862 -119.123961 195 35981ft 482kts
21-Mar-20 12:26 50.994243 -119.160841 195 35984ft 481kts
21-Mar-20 12:27 50.863633 -119.197222 195 35982ft 481kts
21-Mar-20 12:28 50.732160 -119.233635 195 35982ft 480kts
21-Mar-20 12:29 50.600732 -119.269830 195 35982ft 479kts
21-Mar-20 12:30 50.469652 -119.305726 195 35982ft 478kts
21-Mar-20 12:31 50.338672 -119.341394 195 35982ft 478kts
21-Mar-20 12:32 50.208331 -119.376690 195 35981ft 477kts
21-Mar-20 12:33 50.077722 -119.411863 195 36050ft 475kts
21-Mar-20 12:34 49.947283 -119.452236 196 37039ft 479kts
21-Mar-20 12:35 49.815316 -119.493631 196 38010ft 484kts
21-Mar-20 12:36 49.682583 -119.535007 196 38205ft 485kts
21-Mar-20 12:37 49.550426 -119.576003 196 38207ft 485kts
21-Mar-20 12:38 49.417783 -119.616921 195 38039ft 486kts
21-Mar-20 12:39 49.285055 -119.657651 195 38208ft 487kts
21-Mar-20 12:40 49.152126 -119.698199 194 38078ft 487kts
21-Mar-20 12:41 49.019796 -119.738353 194 37995ft 486kts
21-Mar-20 12:42 48.886806 -119.778488 194 37996ft 486kts
21-Mar-20 12:43 48.753617 -119.818468 194 38123ft 486kts
21-Mar-20 12:44 48.620747 -119.858138 194 38183ft 488kts
21-Mar-20 12:45 48.487708 -119.897641 194 38183ft 488kts
21-Mar-20 12:46 48.354536 -119.936977 194 38156ft 488kts
21-Mar-20 12:47 48.221382 -119.976098 194 38157ft 488kts
21-Mar-20 12:48 48.087985 -120.015083 193 38157ft 489kts
21-Mar-20 12:49 47.953838 -120.054080 193 38157ft 489kts
21-Mar-20 12:50 47.819698 -120.092868 193 38155ft 489kts
21-Mar-20 12:51 47.686132 -120.131287 193 38182ft 490kts
21-Mar-20 12:52 47.551496 -120.169816 193 38183ft 490kts
21-Mar-20 12:53 47.417378 -120.207984 193 38183ft 490kts
21-Mar-20 12:54 47.283536 -120.245892 193 38183ft 491kts
21-Mar-20 12:55 47.149750 -120.283584 192 38183ft 491kts
21-Mar-20 12:56 47.014622 -120.321459 192 38183ft 491kts
21-Mar-20 12:57 46.880676 -120.358809 192 38182ft 492kts
21-Mar-20 12:58 46.745755 -120.396237 192 38182ft 492kts
21-Mar-20 12:59 46.611206 -120.433371 192 38182ft 492kts
21-Mar-20 13:00 46.477259 -120.473358 193 38182ft 492kts
21-Mar-20 13:01 46.343462 -120.514519 193 38183ft 493kts
21-Mar-20 13:02 46.209131 -120.555628 193 38184ft 493kts
21-Mar-20 13:03 46.074511 -120.596610 193 38184ft 494kts
21-Mar-20 13:04 45.941208 -120.636992 193 38210ft 485kts
21-Mar-20 13:05 45.808457 -120.677029 192 38212ft 487kts
21-Mar-20 13:06 45.675917 -120.716795 192 38184ft 487kts
21-Mar-20 13:07 45.543144 -120.756453 192 38183ft 488kts
21-Mar-20 13:08 45.409947 -120.796019 192 38183ft 489kts
21-Mar-20 13:09 45.276728 -120.835415 192 38185ft 490kts
21-Mar-20 13:10 45.143420 -120.874658 192 38214ft 491kts
21-Mar-20 13:11 45.010094 -120.913702 192 38211ft 492kts
21-Mar-20 13:12 44.875882 -120.952822 192 38209ft 491kts
21-Mar-20 13:13 44.742288 -120.991584 192 38209ft 491kts
21-Mar-20 13:14 44.608565 -121.030199 192 38210ft 490kts
21-Mar-20 13:15 44.475426 -121.068468 192 38211ft 490kts
21-Mar-20 13:16 44.341896 -121.106660 192 38181ft 489kts
21-Mar-20 13:17 44.208708 -121.144592 192 38183ft 489kts
21-Mar-20 13:18 44.075691 -121.182295 192 38183ft 488kts
21-Mar-20 13:19 43.942538 -121.219853 192 38183ft 488kts
21-Mar-20 13:20 43.809290 -121.257283 192 38182ft 487kts
21-Mar-20 13:21 43.676452 -121.294423 192 38183ft 487kts
21-Mar-20 13:22 43.543851 -121.331329 192 38182ft 486kts
21-Mar-20 13:23 43.410827 -121.368187 192 38182ft 486kts
21-Mar-20 13:24 43.278749 -121.404621 192 38182ft 486kts
21-Mar-20 13:25 43.146471 -121.440948 192 38182ft 485kts
21-Mar-20 13:26 43.014371 -121.477067 192 38182ft 484kts
21-Mar-20 13:27 42.882228 -121.513039 192 38182ft 484kts
21-Mar-20 13:28 42.749996 -121.548871 192 38182ft 484kts
21-Mar-20 13:29 42.618024 -121.584485 192 38182ft 483kts
21-Mar-20 13:30 42.485539 -121.620083 192 38182ft 483kts
21-Mar-20 13:31 42.354008 -121.655272 192 38183ft 483kts
21-Mar-20 13:32 42.222117 -121.690405 192 38183ft 482kts
21-Mar-20 13:33 42.090527 -121.725315 192 38183ft 481kts
21-Mar-20 13:34 41.959271 -121.759981 192 38183ft 481kts
21-Mar-20 13:35 41.827978 -121.794518 192 38184ft 481kts
21-Mar-20 13:36 41.696888 -121.828851 192 38184ft 480kts
21-Mar-20 13:37 41.565205 -121.863205 192 38183ft 480kts
21-Mar-20 13:38 41.433909 -121.897247 192 38183ft 479kts
21-Mar-20 13:39 41.302863 -121.931212 192 38183ft 479kts
21-Mar-20 13:40 41.170427 -121.965325 192 38185ft 492kts
21-Mar-20 13:41 41.036526 -121.999686 192 38184ft 490kts
21-Mar-20 13:42 40.902951 -122.033819 192 38184ft 490kts
21-Mar-20 13:43 40.770829 -122.067439 192 38154ft 490kts
21-Mar-20 13:44 40.636840 -122.101394 192 38129ft 490kts
21-Mar-20 13:45 40.503305 -122.135097 192 38129ft 490kts
21-Mar-20 13:46 40.369902 -122.168632 192 38146ft 488kts
21-Mar-20 13:47 40.236702 -122.201986 192 38155ft 488kts
21-Mar-20 13:48 40.103274 -122.235276 193 38155ft 487kts
21-Mar-20 13:49 39.970820 -122.273386 194 38156ft 487kts
21-Mar-20 13:50 39.839987 -122.311040 194 38154ft 486kts
21-Mar-20 13:51 39.709083 -122.348603 194 38181ft 485kts
21-Mar-20 13:52 39.577495 -122.386208 195 38180ft 484kts
21-Mar-20 13:53 39.446144 -122.423599 195 38182ft 482kts
21-Mar-20 13:54 39.314507 -122.460927 195 38155ft 481kts
21-Mar-20 13:55 39.183590 -122.497929 195 36258ft 480kts
21-Mar-20 13:56 39.052894 -122.534703 195 34213ft 486kts
21-Mar-20 13:57 38.918951 -122.572295 195 32105ft 499kts
21-Mar-20 13:58 38.784224 -122.610395 194 29838ft 496kts
21-Mar-20 13:59 38.653909 -122.647107 194 27495ft 446kts
21-Mar-20 14:00 38.538529 -122.679580 193 25578ft 418kts
21-Mar-20 14:01 38.427502 -122.710783 193 23710ft 401kts
21-Mar-20 14:03 38.319870 -122.740910 193 21920ft 389kts
21-Mar-20 14:04 38.214911 -122.763381 173 20145ft 378kts
21-Mar-20 14:05 38.113153 -122.735061 167 18348ft 370kts
21-Mar-20 14:06 38.014442 -122.706477 167 16522ft 356kts
21-Mar-20 14:07 37.919663 -122.679049 165 14890ft 340kts
21-Mar-20 14:08 37.842158 -122.612415 139 13370ft 322kts
21-Mar-20 14:09 37.776931 -122.543380 139 11954ft 292kts
21-Mar-20 14:10 37.715377 -122.478144 139 10743ft 283kts
21-Mar-20 14:11 37.653892 -122.412785 139 10982ft 284kts
21-Mar-20 14:12 37.587986 -122.356966 153 10776ft 279kts
21-Mar-20 14:13 37.517187 -122.314735 154 9181ft 278kts
21-Mar-20 14:14 37.453446 -122.277132 154 7718ft 238kts
21-Mar-20 14:15 37.395718 -122.236730 115 5896ft 229kts
21-Mar-20 14:16 37.424579 -122.186794 33 4416ft 196kts
21-Mar-20 14:17 37.472803 -122.158664 352 2962ft 195kts
21-Mar-20 14:18 37.525369 -122.170769 338 2496ft 193kts
21-Mar-20 14:18 37.553263 -122.213248 299 1823ft 188kts
21-Mar-20 14:20 37.575188 -122.272546 299 1510ft 149kts
21-Mar-20 14:21 37.595033 -122.318686 299 761ft 149kts
21-Mar-20 14:21 37.611195 -122.357175 299 86ft 149kts
21-Mar-20 14:22 37.618948 -122.378629 267 26ft 12kts
21-Mar-20 14:24 37.620458 -122.383910 296 26ft 14kts
21-Mar-20 14:24 37.622062 -122.387730 298 26ft 14kts
21-Mar-20 14:25 37.621996 -122.391238 208 26ft 10kts
21-Mar-20 14:26 37.619406 -122.391583 116 26ft 11kts
21-Mar-20 14:28 37.617763 -122.389555 208 26ft 0kts
21-Mar-20 14:28 37.617763 -122.389555 208 26ft 0kts
21-Mar-20 14:29 37.617763 -122.389555 208 26ft 0kts
21-Mar-20 14:30 37.617763 -122.389555 208 26ft 0kts
21-Mar-20 14:31 37.617763 -122.389555 208 26ft 0kts
21-Mar-20 14:32 37.617763 -122.389555 208 26ft 0kts

Navigation Log

Ident Type
Flight plan parsing failed, navigation log unavailable